sensor_id;sensor_type;location;lat;lon;timestamp;pressure;altitude;pressure_sealevel;temperature;humidity
41234;BME280;26968;42.686;23.352;2022-07-24T00:01:17;95337.66;;;26.58;38.60
41234;BME280;26968;42.686;23.352;2022-07-24T00:03:43;95323.19;;;26.47;38.43
41234;BME280;26968;42.686;23.352;2022-07-24T00:06:08;95372.09;;;26.80;38.67
41234;BME280;26968;42.686;23.352;2022-07-24T00:08:34;95385.63;;;26.73;38.88
41234;BME280;26968;42.686;23.352;2022-07-24T00:10:59;95342.59;;;26.49;39.02
41234;BME280;26968;42.686;23.352;2022-07-24T00:13:24;95121.22;;;24.90;39.29
41234;BME280;26968;42.686;23.352;2022-07-24T00:15:50;95259.25;;;25.67;39.07
41234;BME280;26968;42.686;23.352;2022-07-24T00:18:15;95283.25;;;25.65;39.11
41234;BME280;26968;42.686;23.352;2022-07-24T00:20:41;95325.78;;;26.10;38.91
41234;BME280;26968;42.686;23.352;2022-07-24T00:23:06;95311.44;;;25.57;39.74
41234;BME280;26968;42.686;23.352;2022-07-24T00:25:32;95330.25;;;25.95;39.49
41234;BME280;26968;42.686;23.352;2022-07-24T00:27:57;95300.19;;;25.55;40.34
41234;BME280;26968;42.686;23.352;2022-07-24T00:30:23;95308.06;;;25.63;40.22
41234;BME280;26968;42.686;23.352;2022-07-24T00:32:48;95317.00;;;25.90;40.18
41234;BME280;26968;42.686;23.352;2022-07-24T00:35:14;95287.78;;;25.31;41.11
41234;BME280;26968;42.686;23.352;2022-07-24T00:37:39;95309.81;;;25.52;41.25
41234;BME280;26968;42.686;23.352;2022-07-24T00:40:05;95368.00;;;26.00;41.11
41234;BME280;26968;42.686;23.352;2022-07-24T00:42:31;95307.69;;;25.38;41.60
41234;BME280;26968;42.686;23.352;2022-07-24T00:44:56;95307.78;;;25.46;41.21
41234;BME280;26968;42.686;23.352;2022-07-24T00:47:22;95326.31;;;25.63;41.47
41234;BME280;26968;42.686;23.352;2022-07-24T00:49:47;95118.31;;;24.27;41.26
41234;BME280;26968;42.686;23.352;2022-07-24T00:52:13;95068.31;;;24.01;40.91
41234;BME280;26968;42.686;23.352;2022-07-24T00:54:38;95371.28;;;25.87;41.42
41234;BME280;26968;42.686;23.352;2022-07-24T00:57:04;95355.09;;;25.67;41.19
41234;BME280;26968;42.686;23.352;2022-07-24T00:59:29;95346.72;;;25.80;41.31
41234;BME280;26968;42.686;23.352;2022-07-24T01:01:55;95301.75;;;25.33;41.62
41234;BME280;26968;42.686;23.352;2022-07-24T01:04:21;95315.28;;;25.29;41.73
41234;BME280;26968;42.686;23.352;2022-07-24T01:06:47;95372.22;;;25.71;42.06
41234;BME280;26968;42.686;23.352;2022-07-24T01:09:13;95338.84;;;25.48;41.99
41234;BME280;26968;42.686;23.352;2022-07-24T01:11:39;95096.81;;;23.72;42.20
41234;BME280;26968;42.686;23.352;2022-07-24T01:14:05;95288.75;;;25.19;41.42
41234;BME280;26968;42.686;23.352;2022-07-24T01:16:32;95167.28;;;24.37;42.04
41234;BME280;26968;42.686;23.352;2022-07-24T01:18:58;95383.97;;;25.79;41.81
41234;BME280;26968;42.686;23.352;2022-07-24T01:21:23;95361.78;;;25.51;41.96
41234;BME280;26968;42.686;23.352;2022-07-24T01:23:50;95344.06;;;25.34;42.35
41234;BME280;26968;42.686;23.352;2022-07-24T01:26:16;95310.78;;;25.14;42.36
41234;BME280;26968;42.686;23.352;2022-07-24T01:28:41;95112.47;;;23.82;42.25
41234;BME280;26968;42.686;23.352;2022-07-24T01:31:06;95298.16;;;25.03;42.09
41234;BME280;26968;42.686;23.352;2022-07-24T01:33:32;95216.00;;;24.56;41.78
41234;BME280;26968;42.686;23.352;2022-07-24T01:35:58;95299.84;;;25.11;42.00
41234;BME280;26968;42.686;23.352;2022-07-24T01:38:23;95362.13;;;25.49;41.72
41234;BME280;26968;42.686;23.352;2022-07-24T01:40:49;95017.44;;;23.26;41.63
41234;BME280;26968;42.686;23.352;2022-07-24T01:43:14;95186.56;;;24.32;41.78
41234;BME280;26968;42.686;23.352;2022-07-24T01:45:40;95358.06;;;25.59;41.56
41234;BME280;26968;42.686;23.352;2022-07-24T01:48:05;95247.41;;;24.80;41.72
41234;BME280;26968;42.686;23.352;2022-07-24T01:50:31;95251.91;;;24.92;41.74
41234;BME280;26968;42.686;23.352;2022-07-24T01:52:56;95269.66;;;25.12;41.76
41234;BME280;26968;42.686;23.352;2022-07-24T01:55:22;95321.44;;;25.26;42.09
41234;BME280;26968;42.686;23.352;2022-07-24T01:57:48;95105.59;;;23.89;41.88
41234;BME280;26968;42.686;23.352;2022-07-24T02:00:15;95243.66;;;24.88;41.89
41234;BME280;26968;42.686;23.352;2022-07-24T02:02:43;95241.84;;;24.73;42.28
41234;BME280;26968;42.686;23.352;2022-07-24T02:05:09;95292.34;;;25.01;42.14
41234;BME280;26968;42.686;23.352;2022-07-24T02:07:38;95335.00;;;25.26;42.27
41234;BME280;26968;42.686;23.352;2022-07-24T02:10:04;95320.31;;;25.05;42.66
41234;BME280;26968;42.686;23.352;2022-07-24T02:12:29;95150.78;;;24.04;42.70
41234;BME280;26968;42.686;23.352;2022-07-24T02:14:55;95333.22;;;25.11;42.71
41234;BME280;26968;42.686;23.352;2022-07-24T02:17:20;95102.59;;;23.71;42.83
41234;BME280;26968;42.686;23.352;2022-07-24T02:19:46;95304.84;;;24.86;42.77
41234;BME280;26968;42.686;23.352;2022-07-24T02:22:11;95231.75;;;24.28;43.40
41234;BME280;26968;42.686;23.352;2022-07-24T02:24:37;95315.19;;;24.80;43.18
41234;BME280;26968;42.686;23.352;2022-07-24T02:27:02;95298.69;;;24.66;43.66
41234;BME280;26968;42.686;23.352;2022-07-24T02:29:28;95291.91;;;24.56;43.48
41234;BME280;26968;42.686;23.352;2022-07-24T02:31:53;95307.81;;;24.77;43.46
41234;BME280;26968;42.686;23.352;2022-07-24T02:34:18;95341.31;;;24.88;43.97
41234;BME280;26968;42.686;23.352;2022-07-24T02:36:44;95223.28;;;24.10;43.17
41234;BME280;26968;42.686;23.352;2022-07-24T02:39:09;95284.06;;;24.51;42.97
41234;BME280;26968;42.686;23.352;2022-07-24T02:41:35;95267.69;;;23.87;43.96
41234;BME280;26968;42.686;23.352;2022-07-24T02:44:00;95352.63;;;24.71;43.59
41234;BME280;26968;42.686;23.352;2022-07-24T02:46:26;95354.50;;;24.48;44.15
41234;BME280;26968;42.686;23.352;2022-07-24T02:48:51;95262.13;;;24.18;43.40
41234;BME280;26968;42.686;23.352;2022-07-24T02:51:17;95330.59;;;24.53;43.23
41234;BME280;26968;42.686;23.352;2022-07-24T02:53:42;95282.53;;;24.31;42.97
41234;BME280;26968;42.686;23.352;2022-07-24T02:56:08;95331.81;;;24.56;43.09
41234;BME280;26968;42.686;23.352;2022-07-24T02:58:33;95157.28;;;23.41;43.58
41234;BME280;26968;42.686;23.352;2022-07-24T03:00:59;95002.91;;;22.42;43.14
41234;BME280;26968;42.686;23.352;2022-07-24T03:03:24;94781.56;;;20.93;42.47
41234;BME280;26968;42.686;23.352;2022-07-24T03:05:50;95370.47;;;24.91;42.61
41234;BME280;26968;42.686;23.352;2022-07-24T03:08:15;95305.72;;;24.48;43.07
41234;BME280;26968;42.686;23.352;2022-07-24T03:10:41;95211.97;;;23.85;43.10
41234;BME280;26968;42.686;23.352;2022-07-24T03:13:06;95041.66;;;22.65;43.32
41234;BME280;26968;42.686;23.352;2022-07-24T03:15:32;95284.81;;;24.29;43.15
41234;BME280;26968;42.686;23.352;2022-07-24T03:17:57;95355.75;;;24.73;43.18
41234;BME280;26968;42.686;23.352;2022-07-24T03:20:25;95356.72;;;24.61;43.80
41234;BME280;26968;42.686;23.352;2022-07-24T03:22:50;95176.13;;;23.54;43.06
41234;BME280;26968;42.686;23.352;2022-07-24T03:25:16;95293.31;;;24.28;42.76
41234;BME280;26968;42.686;23.352;2022-07-24T03:27:42;95347.50;;;24.66;43.12
41234;BME280;26968;42.686;23.352;2022-07-24T03:30:09;95344.50;;;24.71;43.01
41234;BME280;26968;42.686;23.352;2022-07-24T03:32:35;95294.34;;;24.42;43.05
41234;BME280;26968;42.686;23.352;2022-07-24T03:35:01;95284.47;;;24.31;43.44
41234;BME280;26968;42.686;23.352;2022-07-24T03:37:26;95167.72;;;23.43;43.61
41234;BME280;26968;42.686;23.352;2022-07-24T03:39:52;95228.50;;;24.00;43.01
41234;BME280;26968;42.686;23.352;2022-07-24T03:42:17;95237.59;;;24.11;42.73
41234;BME280;26968;42.686;23.352;2022-07-24T03:44:43;95283.25;;;24.47;43.14
41234;BME280;26968;42.686;23.352;2022-07-24T03:47:08;95295.94;;;24.43;42.67
41234;BME280;26968;42.686;23.352;2022-07-24T03:49:33;95338.78;;;24.57;42.77
41234;BME280;26968;42.686;23.352;2022-07-24T03:51:59;95275.03;;;24.05;43.16
41234;BME280;26968;42.686;23.352;2022-07-24T03:54:25;95303.22;;;24.39;42.74
41234;BME280;26968;42.686;23.352;2022-07-24T03:56:50;95270.78;;;24.23;43.21
41234;BME280;26968;42.686;23.352;2022-07-24T03:59:16;95279.94;;;24.19;43.45
41234;BME280;26968;42.686;23.352;2022-07-24T04:01:42;95339.69;;;24.65;43.60
41234;BME280;26968;42.686;23.352;2022-07-24T04:04:07;95325.63;;;24.55;43.73
41234;BME280;26968;42.686;23.352;2022-07-24T04:06:33;95357.19;;;24.86;43.53
41234;BME280;26968;42.686;23.352;2022-07-24T04:09:00;95340.34;;;24.58;43.94
41234;BME280;26968;42.686;23.352;2022-07-24T04:11:26;95257.47;;;24.18;43.76
41234;BME280;26968;42.686;23.352;2022-07-24T04:13:51;95362.31;;;24.72;43.87
41234;BME280;26968;42.686;23.352;2022-07-24T04:16:17;95368.81;;;24.87;43.48
41234;BME280;26968;42.686;23.352;2022-07-24T04:18:42;95309.34;;;24.55;43.59
41234;BME280;26968;42.686;23.352;2022-07-24T04:21:08;95287.81;;;24.43;43.65
41234;BME280;26968;42.686;23.352;2022-07-24T04:23:34;95336.50;;;24.78;43.45
41234;BME280;26968;42.686;23.352;2022-07-24T04:25:59;95283.72;;;24.53;43.21
41234;BME280;26968;42.686;23.352;2022-07-24T04:28:25;95338.06;;;24.79;43.17
41234;BME280;26968;42.686;23.352;2022-07-24T04:30:51;95278.53;;;24.44;43.25
41234;BME280;26968;42.686;23.352;2022-07-24T04:33:17;95301.63;;;24.57;43.46
41234;BME280;26968;42.686;23.352;2022-07-24T04:35:43;95225.47;;;24.05;43.39
41234;BME280;26968;42.686;23.352;2022-07-24T04:38:08;95293.00;;;24.52;43.17
41234;BME280;26968;42.686;23.352;2022-07-24T04:40:33;95338.97;;;24.87;42.82
41234;BME280;26968;42.686;23.352;2022-07-24T04:42:59;95232.91;;;24.08;43.60
41234;BME280;26968;42.686;23.352;2022-07-24T04:45:24;95311.84;;;24.64;42.70
41234;BME280;26968;42.686;23.352;2022-07-24T04:47:50;95259.06;;;24.19;42.79
41234;BME280;26968;42.686;23.352;2022-07-24T04:50:15;95303.88;;;24.33;42.41
41234;BME280;26968;42.686;23.352;2022-07-24T04:52:41;95277.03;;;24.08;42.73
41234;BME280;26968;42.686;23.352;2022-07-24T04:55:07;95324.63;;;24.44;42.60
41234;BME280;26968;42.686;23.352;2022-07-24T04:57:33;95312.91;;;24.59;41.98
41234;BME280;26968;42.686;23.352;2022-07-24T04:59:58;95381.09;;;25.00;42.09
41234;BME280;26968;42.686;23.352;2022-07-24T05:02:24;95353.06;;;24.92;41.88
41234;BME280;26968;42.686;23.352;2022-07-24T05:04:49;95358.13;;;24.94;41.68
41234;BME280;26968;42.686;23.352;2022-07-24T05:07:15;95375.66;;;25.00;41.79
41234;BME280;26968;42.686;23.352;2022-07-24T05:09:40;95318.44;;;24.67;41.60
41234;BME280;26968;42.686;23.352;2022-07-24T05:12:06;95385.19;;;25.13;41.09
41234;BME280;26968;42.686;23.352;2022-07-24T05:14:32;95378.63;;;25.14;41.23
41234;BME280;26968;42.686;23.352;2022-07-24T05:16:57;95381.22;;;25.30;41.49
41234;BME280;26968;42.686;23.352;2022-07-24T05:19:22;95308.41;;;24.90;41.19
41234;BME280;26968;42.686;23.352;2022-07-24T05:21:48;95318.44;;;25.09;40.96
41234;BME280;26968;42.686;23.352;2022-07-24T05:24:13;95305.16;;;25.04;40.81
41234;BME280;26968;42.686;23.352;2022-07-24T05:26:39;95246.00;;;24.67;40.41
41234;BME280;26968;42.686;23.352;2022-07-24T05:29:05;95381.34;;;25.60;40.42
41234;BME280;26968;42.686;23.352;2022-07-24T05:31:32;95288.78;;;24.96;39.88
41234;BME280;26968;42.686;23.352;2022-07-24T05:33:58;95318.22;;;25.17;40.40
41234;BME280;26968;42.686;23.352;2022-07-24T05:36:24;95357.03;;;25.44;40.23
41234;BME280;26968;42.686;23.352;2022-07-24T05:38:50;95380.53;;;25.82;39.81
41234;BME280;26968;42.686;23.352;2022-07-24T05:41:16;95352.97;;;25.57;40.39
41234;BME280;26968;42.686;23.352;2022-07-24T05:43:42;95370.09;;;25.84;40.11
41234;BME280;26968;42.686;23.352;2022-07-24T05:46:07;95373.34;;;25.93;39.41
41234;BME280;26968;42.686;23.352;2022-07-24T05:48:33;95263.09;;;25.13;39.31
41234;BME280;26968;42.686;23.352;2022-07-24T05:50:59;95361.19;;;25.87;39.08
41234;BME280;26968;42.686;23.352;2022-07-24T05:53:24;95355.09;;;25.94;39.47
41234;BME280;26968;42.686;23.352;2022-07-24T05:55:50;95325.22;;;25.67;39.80
41234;BME280;26968;42.686;23.352;2022-07-24T05:58:16;95370.13;;;26.14;39.37
41234;BME280;26968;42.686;23.352;2022-07-24T06:00:42;95372.50;;;26.19;39.35
41234;BME280;26968;42.686;23.352;2022-07-24T06:03:07;95366.06;;;26.01;38.76
41234;BME280;26968;42.686;23.352;2022-07-24T06:05:33;95339.56;;;25.94;37.90
41234;BME280;26968;42.686;23.352;2022-07-24T06:07:58;95268.25;;;25.48;37.57
41234;BME280;26968;42.686;23.352;2022-07-24T06:10:24;95352.31;;;26.17;37.68
41234;BME280;26968;42.686;23.352;2022-07-24T06:12:49;95271.50;;;25.57;36.65
41234;BME280;26968;42.686;23.352;2022-07-24T06:15:15;95252.28;;;25.43;37.28
41234;BME280;26968;42.686;23.352;2022-07-24T06:17:41;95385.38;;;26.22;37.95
41234;BME280;26968;42.686;23.352;2022-07-24T06:20:08;95377.28;;;26.26;38.03
41234;BME280;26968;42.686;23.352;2022-07-24T06:22:34;95364.28;;;26.42;37.66
41234;BME280;26968;42.686;23.352;2022-07-24T06:24:59;95277.44;;;25.93;38.04
41234;BME280;26968;42.686;23.352;2022-07-24T06:27:25;95350.31;;;26.43;37.83
41234;BME280;26968;42.686;23.352;2022-07-24T06:29:51;95304.56;;;26.19;37.53
41234;BME280;26968;42.686;23.352;2022-07-24T06:32:16;95183.63;;;25.43;37.84
41234;BME280;26968;42.686;23.352;2022-07-24T06:34:41;95314.06;;;26.32;37.19
41234;BME280;26968;42.686;23.352;2022-07-24T06:37:07;95255.78;;;26.00;37.56
41234;BME280;26968;42.686;23.352;2022-07-24T06:39:32;95280.44;;;26.18;37.80
41234;BME280;26968;42.686;23.352;2022-07-24T06:41:58;95347.47;;;26.66;37.76
41234;BME280;26968;42.686;23.352;2022-07-24T06:44:23;95301.31;;;26.40;37.54
41234;BME280;26968;42.686;23.352;2022-07-24T06:46:49;95260.25;;;26.15;37.63
41234;BME280;26968;42.686;23.352;2022-07-24T06:49:15;95312.41;;;26.58;38.02
41234;BME280;26968;42.686;23.352;2022-07-24T06:51:40;95314.78;;;26.63;38.03
41234;BME280;26968;42.686;23.352;2022-07-24T06:54:06;95322.13;;;26.59;38.24
41234;BME280;26968;42.686;23.352;2022-07-24T06:56:31;95247.66;;;26.03;37.45
41234;BME280;26968;42.686;23.352;2022-07-24T06:58:57;95269.81;;;26.35;37.60
41234;BME280;26968;42.686;23.352;2022-07-24T07:01:23;95203.22;;;25.85;37.51
41234;BME280;26968;42.686;23.352;2022-07-24T07:03:52;95304.66;;;26.60;37.92
41234;BME280;26968;42.686;23.352;2022-07-24T07:06:17;95197.97;;;26.03;38.03
41234;BME280;26968;42.686;23.352;2022-07-24T07:08:43;95222.81;;;26.35;37.80
41234;BME280;26968;42.686;23.352;2022-07-24T07:11:08;95244.78;;;26.56;37.00
41234;BME280;26968;42.686;23.352;2022-07-24T07:13:34;95265.56;;;26.75;37.13
41234;BME280;26968;42.686;23.352;2022-07-24T07:16:00;95321.97;;;27.18;36.64
41234;BME280;26968;42.686;23.352;2022-07-24T07:18:25;95304.94;;;27.28;36.67
41234;BME280;26968;42.686;23.352;2022-07-24T07:20:51;95299.47;;;27.25;36.86
41234;BME280;26968;42.686;23.352;2022-07-24T07:23:21;95336.28;;;27.56;36.53
41234;BME280;26968;42.686;23.352;2022-07-24T07:25:46;95313.34;;;27.53;36.11
41234;BME280;26968;42.686;23.352;2022-07-24T07:28:12;95324.78;;;27.77;37.03
41234;BME280;26968;42.686;23.352;2022-07-24T07:30:37;95272.06;;;27.55;36.83
41234;BME280;26968;42.686;23.352;2022-07-24T07:33:02;95008.84;;;25.95;36.12
41234;BME280;26968;42.686;23.352;2022-07-24T07:35:28;95245.25;;;27.53;35.84
41234;BME280;26968;42.686;23.352;2022-07-24T07:37:54;95252.63;;;27.53;35.14
41234;BME280;26968;42.686;23.352;2022-07-24T07:40:20;95307.41;;;28.02;34.99
41234;BME280;26968;42.686;23.352;2022-07-24T07:42:45;95261.75;;;27.82;34.76
41234;BME280;26968;42.686;23.352;2022-07-24T07:45:11;95308.31;;;28.24;34.65
41234;BME280;26968;42.686;23.352;2022-07-24T07:47:36;95325.50;;;28.35;34.60
41234;BME280;26968;42.686;23.352;2022-07-24T07:50:03;95318.84;;;28.33;34.46
41234;BME280;26968;42.686;23.352;2022-07-24T07:52:29;95272.41;;;28.15;34.38
41234;BME280;26968;42.686;23.352;2022-07-24T07:54:54;95320.13;;;28.53;34.24
41234;BME280;26968;42.686;23.352;2022-07-24T07:57:20;95047.94;;;26.75;34.13
41234;BME280;26968;42.686;23.352;2022-07-24T07:59:45;95324.00;;;28.52;33.45
41234;BME280;26968;42.686;23.352;2022-07-24T08:02:11;95222.06;;;27.95;32.92
41234;BME280;26968;42.686;23.352;2022-07-24T08:04:36;95315.47;;;28.61;32.42
41234;BME280;26968;42.686;23.352;2022-07-24T08:07:02;95244.44;;;28.32;32.67
41234;BME280;26968;42.686;23.352;2022-07-24T08:09:27;95200.31;;;28.09;32.79
41234;BME280;26968;42.686;23.352;2022-07-24T08:11:53;95315.56;;;29.00;33.31
41234;BME280;26968;42.686;23.352;2022-07-24T08:14:18;95290.59;;;28.84;32.70
41234;BME280;26968;42.686;23.352;2022-07-24T08:16:44;95192.22;;;28.30;31.85
41234;BME280;26968;42.686;23.352;2022-07-24T08:19:09;95324.56;;;29.18;31.69
41234;BME280;26968;42.686;23.352;2022-07-24T08:21:35;95301.13;;;28.99;32.97
41234;BME280;26968;42.686;23.352;2022-07-24T08:24:00;95282.78;;;29.07;32.78
41234;BME280;26968;42.686;23.352;2022-07-24T08:26:26;95246.13;;;28.94;31.46
41234;BME280;26968;42.686;23.352;2022-07-24T08:28:56;95190.34;;;28.59;30.88
41234;BME280;26968;42.686;23.352;2022-07-24T08:31:24;95250.03;;;29.03;30.98
41234;BME280;26968;42.686;23.352;2022-07-24T08:33:50;95265.66;;;29.38;30.98
41234;BME280;26968;42.686;23.352;2022-07-24T08:36:15;95322.59;;;29.86;30.49
41234;BME280;26968;42.686;23.352;2022-07-24T08:38:41;95245.75;;;29.45;30.32
41234;BME280;26968;42.686;23.352;2022-07-24T08:41:07;95251.16;;;29.80;29.72
41234;BME280;26968;42.686;23.352;2022-07-24T08:43:33;95278.47;;;29.95;30.32
41234;BME280;26968;42.686;23.352;2022-07-24T08:45:59;95312.69;;;30.38;30.29
41234;BME280;26968;42.686;23.352;2022-07-24T08:48:26;95270.09;;;30.37;29.88
41234;BME280;26968;42.686;23.352;2022-07-24T08:50:52;95275.13;;;30.49;30.17
41234;BME280;26968;42.686;23.352;2022-07-24T08:53:22;95186.59;;;30.11;30.14
41234;BME280;26968;42.686;23.352;2022-07-24T08:55:48;95283.97;;;30.78;29.83
41234;BME280;26968;42.686;23.352;2022-07-24T08:58:14;95246.19;;;30.45;29.75
41234;BME280;26968;42.686;23.352;2022-07-24T09:00:40;95248.84;;;30.69;29.63
41234;BME280;26968;42.686;23.352;2022-07-24T09:03:06;95287.69;;;31.05;29.30
41234;BME280;26968;42.686;23.352;2022-07-24T09:05:31;95258.81;;;30.97;29.31
41234;BME280;26968;42.686;23.352;2022-07-24T09:10:32;95298.13;;;31.28;29.02
41234;BME280;26968;42.686;23.352;2022-07-24T09:13:12;95298.66;;;31.61;28.51
41234;BME280;26968;42.686;23.352;2022-07-24T09:15:48;95292.94;;;31.41;29.15
41234;BME280;26968;42.686;23.352;2022-07-24T09:20:53;95247.97;;;31.35;28.66
41234;BME280;26968;42.686;23.352;2022-07-24T09:23:19;95267.22;;;31.28;29.27
41234;BME280;26968;42.686;23.352;2022-07-24T09:25:50;95252.16;;;30.98;29.11
41234;BME280;26968;42.686;23.352;2022-07-24T09:28:16;95279.09;;;31.11;29.52
41234;BME280;26968;42.686;23.352;2022-07-24T09:30:43;95287.47;;;31.37;29.13
41234;BME280;26968;42.686;23.352;2022-07-24T09:38:05;95180.53;;;30.48;28.37
41234;BME280;26968;42.686;23.352;2022-07-24T09:40:33;95295.16;;;31.01;29.32
41234;BME280;26968;42.686;23.352;2022-07-24T09:43:19;95285.69;;;31.20;29.04
41234;BME280;26968;42.686;23.352;2022-07-24T09:48:34;95172.19;;;30.73;29.34
41234;BME280;26968;42.686;23.352;2022-07-24T09:51:11;95280.34;;;31.47;28.52
41234;BME280;26968;42.686;23.352;2022-07-24T09:53:38;95211.28;;;31.25;28.24
41234;BME280;26968;42.686;23.352;2022-07-24T09:56:15;95242.59;;;32.03;26.90
41234;BME280;26968;42.686;23.352;2022-07-24T10:01:10;95229.06;;;33.96;24.96
41234;BME280;26968;42.686;23.352;2022-07-24T10:03:39;95210.63;;;34.53;23.67
41234;BME280;26968;42.686;23.352;2022-07-24T10:06:11;95234.53;;;35.56;21.50
41234;BME280;26968;42.686;23.352;2022-07-24T10:08:39;95254.66;;;36.44;20.53
41234;BME280;26968;42.686;23.352;2022-07-24T10:11:06;95216.38;;;36.84;20.75
41234;BME280;26968;42.686;23.352;2022-07-24T10:13:32;95214.63;;;37.15;20.08
41234;BME280;26968;42.686;23.352;2022-07-24T10:18:53;95184.75;;;36.97;18.86
41234;BME280;26968;42.686;23.352;2022-07-24T10:21:27;95221.75;;;37.38;19.18
41234;BME280;26968;42.686;23.352;2022-07-24T10:26:51;95218.41;;;37.90;18.87
41234;BME280;26968;42.686;23.352;2022-07-24T10:29:20;95179.03;;;37.39;18.32
41234;BME280;26968;42.686;23.352;2022-07-24T10:34:46;95237.41;;;38.44;18.73
41234;BME280;26968;42.686;23.352;2022-07-24T10:45:35;95225.31;;;38.29;17.94
41234;BME280;26968;42.686;23.352;2022-07-24T10:48:25;95196.00;;;38.19;18.35
41234;BME280;26968;42.686;23.352;2022-07-24T10:53:41;95217.44;;;38.80;17.67
41234;BME280;26968;42.686;23.352;2022-07-24T11:03:58;95206.81;;;39.37;17.28
41234;BME280;26968;42.686;23.352;2022-07-24T11:06:44;95201.53;;;39.12;17.35
41234;BME280;26968;42.686;23.352;2022-07-24T11:09:10;95200.69;;;38.93;17.46
41234;BME280;26968;42.686;23.352;2022-07-24T11:11:41;95154.38;;;38.63;17.60
41234;BME280;26968;42.686;23.352;2022-07-24T11:14:07;95201.47;;;38.63;17.75
41234;BME280;26968;42.686;23.352;2022-07-24T11:16:33;95126.84;;;37.84;18.12
41234;BME280;26968;42.686;23.352;2022-07-24T11:21:39;95185.69;;;38.19;18.22
41234;BME280;26968;42.686;23.352;2022-07-24T11:32:00;95191.09;;;37.32;19.47
41234;BME280;26968;42.686;23.352;2022-07-24T11:34:27;95188.72;;;36.96;19.47
41234;BME280;26968;42.686;23.352;2022-07-24T11:36:53;95135.66;;;36.89;19.20
41234;BME280;26968;42.686;23.352;2022-07-24T11:39:25;95174.94;;;36.84;20.01
41234;BME280;26968;42.686;23.352;2022-07-24T11:41:57;95178.56;;;36.81;20.09
41234;BME280;26968;42.686;23.352;2022-07-24T11:44:25;95178.78;;;36.73;19.88
41234;BME280;26968;42.686;23.352;2022-07-24T11:46:51;95173.72;;;36.85;19.83
41234;BME280;26968;42.686;23.352;2022-07-24T11:49:17;95168.38;;;37.03;20.69
41234;BME280;26968;42.686;23.352;2022-07-24T11:51:48;95082.63;;;36.05;20.04
41234;BME280;26968;42.686;23.352;2022-07-24T11:54:21;95146.06;;;36.21;20.40
41234;BME280;26968;42.686;23.352;2022-07-24T11:56:47;95128.63;;;35.83;20.38
41234;BME280;26968;42.686;23.352;2022-07-24T11:59:27;95166.44;;;36.11;20.42
41234;BME280;26968;42.686;23.352;2022-07-24T12:02:09;95153.75;;;35.72;21.24
41234;BME280;26968;42.686;23.352;2022-07-24T12:04:35;95129.53;;;35.35;21.68
41234;BME280;26968;42.686;23.352;2022-07-24T12:07:09;95100.97;;;34.96;21.67
41234;BME280;26968;42.686;23.352;2022-07-24T12:12:30;95167.09;;;35.12;22.46
41234;BME280;26968;42.686;23.352;2022-07-24T12:15:10;95094.47;;;34.90;22.30
41234;BME280;26968;42.686;23.352;2022-07-24T12:18:00;95156.91;;;35.42;22.10
41234;BME280;26968;42.686;23.352;2022-07-24T12:20:30;95157.22;;;35.60;22.07
41234;BME280;26968;42.686;23.352;2022-07-24T12:22:57;95155.88;;;35.81;21.66
41234;BME280;26968;42.686;23.352;2022-07-24T12:25:24;95052.63;;;35.53;21.91
41234;BME280;26968;42.686;23.352;2022-07-24T12:27:50;95143.75;;;36.45;20.55
41234;BME280;26968;42.686;23.352;2022-07-24T12:30:29;95150.03;;;36.96;20.34
41234;BME280;26968;42.686;23.352;2022-07-24T12:33:07;95111.22;;;37.00;19.94
41234;BME280;26968;42.686;23.352;2022-07-24T12:35:35;95112.25;;;37.28;19.63
41234;BME280;26968;42.686;23.352;2022-07-24T12:41:18;95130.53;;;37.81;19.58
41234;BME280;26968;42.686;23.352;2022-07-24T12:46:16;95071.75;;;37.99;19.01
41234;BME280;26968;42.686;23.352;2022-07-24T12:49:03;95068.25;;;38.08;19.05
41234;BME280;26968;42.686;23.352;2022-07-24T12:51:57;95113.75;;;38.69;18.59
41234;BME280;26968;42.686;23.352;2022-07-24T12:54:32;95121.25;;;39.08;18.29
41234;BME280;26968;42.686;23.352;2022-07-24T12:56:59;95094.94;;;39.13;17.95
41234;BME280;26968;42.686;23.352;2022-07-24T12:59:29;95106.06;;;39.49;18.02
41234;BME280;26968;42.686;23.352;2022-07-24T13:01:57;95042.53;;;39.24;17.90
41234;BME280;26968;42.686;23.352;2022-07-24T13:04:25;95105.13;;;39.43;18.05
41234;BME280;26968;42.686;23.352;2022-07-24T13:06:57;95080.78;;;39.56;18.24
41234;BME280;26968;42.686;23.352;2022-07-24T13:09:23;95033.91;;;38.94;17.77
41234;BME280;26968;42.686;23.352;2022-07-24T13:11:51;95006.16;;;38.67;18.25
41234;BME280;26968;42.686;23.352;2022-07-24T13:14:18;95059.19;;;39.24;17.97
41234;BME280;26968;42.686;23.352;2022-07-24T13:16:46;95099.69;;;40.03;17.23
41234;BME280;26968;42.686;23.352;2022-07-24T13:19:12;95091.34;;;40.45;17.11
41234;BME280;26968;42.686;23.352;2022-07-24T13:21:39;94994.41;;;39.63;16.79
41234;BME280;26968;42.686;23.352;2022-07-24T13:24:06;95035.00;;;40.45;16.40
41234;BME280;26968;42.686;23.352;2022-07-24T13:26:32;95073.97;;;40.36;15.97
41234;BME280;26968;42.686;23.352;2022-07-24T13:28:58;94973.22;;;39.93;15.96
41234;BME280;26968;42.686;23.352;2022-07-24T13:31:24;95030.47;;;39.72;16.61
41234;BME280;26968;42.686;23.352;2022-07-24T13:33:50;95086.78;;;39.82;18.12
41234;BME280;26968;42.686;23.352;2022-07-24T13:36:17;95052.13;;;39.41;18.50
41234;BME280;26968;42.686;23.352;2022-07-24T13:38:43;95001.84;;;38.66;18.45
41234;BME280;26968;42.686;23.352;2022-07-24T13:41:10;95085.53;;;39.19;19.63
41234;BME280;26968;42.686;23.352;2022-07-24T13:43:36;95055.88;;;38.71;19.39
41234;BME280;26968;42.686;23.352;2022-07-24T13:46:02;95016.66;;;37.61;19.63
41234;BME280;26968;42.686;23.352;2022-07-24T13:48:28;95019.66;;;37.32;20.24
41234;BME280;26968;42.686;23.352;2022-07-24T13:50:53;95028.06;;;37.51;19.96